Coin, Iowa
Current Conditions -  °F | °C
As of 3:35 AM on Thursday 27 Nov 2014 (Local Time) from KICL Reporting Station
Broken Clouds Broken Clouds  
Wind Chill:   Ceiling: 1600
Heat Index: 21°   Visibility: 10mi
Dew Point: 16°   Wind: 12mph
Humidity: 80%   Direction: 330°NNW
Pressure: 30.51"   Gusts: NA
Location:  40.65°N, 95.23°W
Report Text: KICL 270935Z AUTO 33010KT 10SM BKN016 BKN021 M06/M09 A3051 RMK AO2
Loading
Personal Weather Stations






























Interactive Weather Map New forecast layout! Learn more

10-Day Weather Forecast

Advertisements
Track Severe Weather on mobile